events-overview

Kinetic Half

 

Overall Women

Lake Anna State Park - Spotsylvania, VA 5/09/2009 08:00AM

** Results are for the private use of participants and are the Intellectual Property of Set Up Events. Unauthorized use of these results is prohibited.

Place Bib Co S Age NAME CITY/STATE DQ DQ Rank SWIM Rank T1 Rank BIKE Rank T2 Rank RUN PENALTY TIME DQ
1205 F26MEGAN KNEPPERFAIRFAX VA 200:23:31300:02:03602:51:30900:01:18101:36:06 04:54:26 
287 F44JEANNE DEBONISBRECKSVILLE OH 700:28:592300:02:47702:52:521800:01:35201:36:35 05:02:45 
3413 F24LINDSAY WOHLERSCOLLEGE PARK MD 900:29:14800:02:211102:55:411500:01:33401:38:29 05:07:16 
4130 F40JULIE GIBBONSFAIRFAX VA 2000:33:041200:02:25202:47:41100:00:57501:46:36 05:10:41 
5148 F27MICHELLE HARBURGWASHINGTON DC 5900:39:047900:04:34402:50:146700:02:55301:37:19 05:14:03 
6240 F27ANNE MARBARGERARLINGTON VA 4200:36:231600:02:37902:55:011300:01:26701:48:41 05:24:05 
7330 F26KRISTIN SCHULZARLINGTON VA 1800:32:281100:02:25302:50:052700:01:441501:58:40 05:25:20 
8281 F24ERIN O'DONNELLMARION VA 800:29:021400:02:291402:58:265600:02:35801:53:05 05:25:35 
972 F54CLAUDIA CORTESSTERLING VA 400:27:245200:03:274203:11:033200:01:54601:48:10 05:31:56 
1021 F42DEBORAH BATTAGLIASALT LAKE CITY UT 1500:31:071300:02:281602:59:28300:01:071301:58:04 05:32:12 
11255 F29SUZY MCCULLOCHELLICOTT CITY MD 500:27:47100:01:58502:51:131100:01:213602:13:06 05:35:23 
1291 F26KATE DERNERVIRGINIA BEACH VA 3900:36:18700:02:181702:59:461600:01:331001:55:49 05:35:42 
13360 F40HEIDI STAUBMORRISVILLE NC 4900:37:091500:02:332003:00:412000:01:351201:57:44 05:39:41 
14347 F49KENDAL SMITHRALEIGH NC 1300:30:575700:03:333703:08:571900:01:35901:55:37 05:40:36 
15403 F55ELIZABETH WEAVERCHEVY CHASE MD 2300:34:164300:03:181502:59:143700:02:022202:03:05 05:41:53 
16381 F31DEVON TROOPHAMPSTEAD MD 2600:34:372500:02:531002:55:16400:01:083102:10:54 05:44:46 
17200 F31SUZANNE KINSKYSILVER SPRING MD 1200:29:42500:02:093103:06:002100:01:352502:05:34 05:44:59 
18269 F19SAMANTHA MORRISONFREDERICKSBURG VA 1000:29:156600:03:584403:13:037200:03:011101:55:57 05:45:13 
19296 F25SUZANNE PLANTALEXANDRIA VA 1100:29:381000:02:253403:06:41500:01:082802:06:05 05:45:55 
20401 F30AYAKO WATANABEROCKVILLE MD 3100:35:113500:03:093603:07:152200:01:371701:59:52 05:47:03 
21271 F33AMY MORTONRICHMOND VA 3000:35:092900:03:014003:09:56600:01:101601:59:02 05:48:16 
22163 F46JULIA HIGGINSSPRINGFIELD VA 3200:35:274500:03:203303:06:304200:02:042002:01:22 05:48:40 
23224 F42MICHELLE LILLYMIDLOTHIAN VA 2400:34:231700:02:382703:04:272400:01:412702:05:55 05:49:01 
24222 F41JENNY LEUPOLDFREDERICKSBURG VA 2700:34:422200:02:464103:10:161400:01:281802:00:35 05:49:47 
25168 F49CAROL HOUSAMANWOODBRIDGE VA 3300:35:334000:03:152903:05:423100:01:532302:04:34 05:50:55 
2648 F37DEBRA BROSNIHANARLINGTON VA 2100:33:484900:03:222603:03:484900:02:143302:12:00 05:55:10 
27187 F50TAMMY JOHNSTONSTUARTS DRAFT VA 5800:39:024800:03:224303:11:13800:01:181902:00:51 05:55:44 
28404 F28KRISTEN WEICHELWINSTON-SALEM NC 5700:38:561800:02:403803:09:077100:03:012402:04:49 05:58:31 
29407 F33MELODY WESTMEYERALEXANDRIA VA 6300:39:36200:01:593503:06:532300:01:393002:08:40 05:58:45 
30140 F33KATHRYN GREENALEXANDRIA VA 3800:36:162600:03:002303:03:191200:01:254202:17:15 06:01:13 
PlaceBibCoSAgeNAMECITY/STATE DQDQRankSWIMRankT1RankBIKERankT2RankRUNPENALTYTIMEDQ
31258 F43JUDA MCGANNONHUNT VALLEY MD 4100:36:226200:03:475603:20:558400:03:491401:58:11 06:03:02 
32451 F27LAURA BERGMANNCHARLES TOWN WV 7600:42:063800:03:142403:03:324400:02:073402:12:28 06:03:25 
33270 F46JEAN MORRISSEYWOODBRIDGE VA 1700:32:114200:03:162803:05:283400:01:564802:21:49 06:04:38 
343 F47RENEE ADAMSMANASSAS VA 3700:36:046800:04:012503:03:346300:02:473902:16:1500:04:0006:06:38 
35152 F45MARY ELLEN HASELDENSTAFFORD VA 3500:35:423100:03:074503:14:411000:01:213202:11:53 06:06:41 
36166 F38SUZANNE HORNERFORT BELVOIR VA 5400:38:157200:04:094703:14:553900:02:022902:08:18 06:07:38 
3729 F39KAREN BERNHARDRICHMOND VA 2500:34:352000:02:422203:02:335100:02:254902:25:38 06:07:51 
3868NFF33MICHELLE CONKLINBALTIMORE MD 5600:38:547100:04:075703:21:045000:02:162102:01:39 06:07:59 
39305 F36LARA RAMSEYWASHINGTON DC 5300:38:075900:03:353903:09:246000:02:434502:18:57 06:12:44 
40218 F28CAROLINE LAUVERARLINGTON VA 4700:37:054400:03:194803:16:374000:02:033702:13:59 06:13:00 
4164 F27MARISA COHENNORFOLK VA 1900:32:546300:03:485103:19:303500:01:564402:18:41 06:16:47 
4277 F34MEGAN CURETONANNAPOLIS MD 5000:37:133300:03:075803:22:184100:02:033502:12:29 06:17:07 
43382 F24CARRIE TROWBRIDGEBLACKSBURG VA 3600:36:045000:03:245003:19:28700:01:134602:20:22 06:20:28 
4438 F33MIRYAM BOHABOT-FIRTAGWOODBRIDGE VA 2800:34:555300:03:286603:26:466900:02:593802:14:47 06:22:52 
4596AF47SHERRY DOWDYFREDERICKSBURG VA 4800:37:095800:03:334603:14:416800:02:555102:26:40 06:24:57 
46411AF30SARAH WILSONNORFOLK VA 1400:31:003000:03:013203:06:193000:01:537102:43:49 06:26:00 
47331 F38ANNA SCHWINGALEXANDRIA VA 6800:40:451900:02:428103:36:372600:01:442602:05:40 06:27:25 
48197 F44JULIE KENNEDYALEXANDRIA VA 8400:43:442400:02:505503:20:264500:02:084702:21:20 06:30:26 
49421 F33CHERYL YOUNGNORFOLK VA 8800:45:138200:04:375303:19:468500:03:494302:17:22 06:30:45 
50292 F41MARY PICKERINGARLINGTON VA 6400:39:393400:03:087703:33:125900:02:424102:17:08 06:35:48 
51180 F40JOANNA IPARLINGTON VA 6100:39:155600:03:325903:22:382900:01:515502:30:34 06:37:48 
52256 F41BETSY MCELFRESHMIDLOTHIAN VA 8900:46:136700:04:006203:24:027500:03:205002:25:42 06:43:15 
5393 F39ANGELA DILKSWASHINGTON DC 7500:41:322100:02:427103:30:123800:02:025302:29:03 06:45:29 
54313 F27KAT RICHARLINGTON VA 7200:41:178500:04:528903:42:567800:03:274002:16:16 06:48:46 
5539 F28SUSIE BOKERMANNWASHINGTON DC 6700:40:448900:05:057503:32:593300:01:565602:31:26 06:52:08 
5678AF25ALI CURRIERAPEX NC 8600:44:383600:03:126303:24:336100:02:466302:37:21 06:52:28 
57388AF36HEIDI VAN BROCKLINAPEX NC 9400:47:465500:03:315403:20:098700:03:556202:37:10 06:52:29 
58100 F42CYNTHIA DULIKRICHMOND VA 8700:45:079500:05:366103:23:579300:04:385802:34:11 06:53:28 
59147 F29KELLY HADIARISMIDLOTHIAN VA 6000:39:067700:04:328603:39:106600:02:545202:28:50 06:54:30 
60341AF31JOY SHOEMAKERWASHINGTON DC 4300:36:243900:03:157203:32:214700:02:096602:41:03 06:55:09 
61183NFF26ALEXANDRA JANUSGAITHERSBURG MD 10100:51:117800:04:336703:27:088600:03:505702:31:33 06:58:12 
PlaceBibCoSAgeNAMECITY/STATE DQDQRankSWIMRankT1RankBIKERankT2RankRUNPENALTYTIMEDQ
62454AF31KATHRYN MOOREARLINGTON VA 5500:38:287300:04:118403:37:443600:01:576002:35:54 06:58:12 
63247 F24LINDSAY MAULDINFALLS CHURCH VA 4600:36:522700:03:007603:33:118100:03:366702:41:52 06:58:29 
64257 F37TAMARA MCFARRENARLINGTON VA 8200:43:296000:03:355203:19:422500:01:417502:51:07 06:59:31 
65223 F30JENNIFER LILLARDSPRINGFIELD VA 2900:35:067500:04:309103:46:547300:03:025402:30:31 07:00:02 
66301 F39TRICIA POWELLRICHMOND VA 8100:43:018800:04:586003:23:557900:03:287302:46:08 07:01:29 
67400 F42MOLLY WASHRICHMOND VA 7700:42:109000:05:216803:27:109200:04:376802:42:21 07:01:37 
68232 F30KIMBERLY LYONSWASHINGTON DC 6900:40:458300:04:427803:33:265800:02:376502:38:3500:04:0007:04:03 
6982 F48SHARON DARBYMIDLOTHIAN VA 7100:41:079100:05:227903:33:317400:03:157002:42:56 07:06:09 
70142 F50PAULINE GREGORYVESTAL NY 7900:42:565100:03:266903:28:562800:01:487602:51:11 07:08:16 
71343 F43CAROL SHUFORDBETHESDA MD 5100:37:1510000:06:189003:44:169000:04:146102:36:54 07:08:55 
72318 F47LINDA RUMSEYFAIRFAX VA 8000:42:579700:05:477403:32:444600:02:087202:45:28 07:09:02 
73254 F45RUTH MCCULLENRICHMOND VA 8500:44:099900:05:538203:37:066400:02:505902:35:4700:04:0007:09:43 
74337 F38BROOKE SHARPSPRINGFIELD VA 9600:49:279200:05:274903:17:129400:04:547902:52:55 07:09:53 
75384 F42MICHELE TUCKERWOODBRIDGE VA 6600:40:339400:05:358503:38:269500:05:076902:42:30 07:12:09 
76353 F34LISA SORONENARLINGTON VA 6200:39:326500:03:539303:47:578900:04:126402:38:05 07:13:36 
77209 F31KATE KONKOVAHERNDON VA            07:15:28 
78241AF41HEIDI MARGGRAFRESTON VA 7300:41:227000:04:058003:35:068000:03:298102:54:22 07:18:23 
79349 F50SHAWN SMITHRICHMOND VA 6500:40:037600:04:306403:25:207700:03:268903:12:57 07:26:14 
8098 F36LYNN DUBARDGLEN ALLEN VA 10401:09:196100:03:426503:25:294300:02:047402:50:52 07:31:24 
81367 F25KRISTIN SYKESCLIFTON VA 2200:34:028700:04:569503:49:429600:05:198202:57:46 07:31:44 
82101 F66SHARON DUNCAN-KOONTZCHARLOTTE NC 9500:49:219300:05:328303:37:205300:02:288302:58:13 07:32:52 
83298 F41LAURA POTTERLYNCHBURG VA 9700:49:3110100:06:408803:42:156200:02:467702:52:26 07:33:36 
84312 F58DOROTHY RICHMANAKIN SABOT VA 9300:47:262800:03:007003:29:497000:03:008703:10:45 07:33:59 
85416 F47TINA WORDBEAVERDAM VA 9200:46:358000:04:359203:47:415400:02:357802:52:41 07:34:05 
86221 F38ESTHER LETSCHECENTREVILLE VA 5200:37:503200:03:078703:40:278300:03:478803:12:35 07:37:44 
87191NFF43SHEILA JORDANFAIRFAX VA 3400:35:3910400:08:129403:47:574800:02:128603:07:28 07:41:27 
8866 F53PAMELA COLEMANWASHINGTON DC 9000:46:2310300:07:279703:52:349100:04:278002:53:37 07:44:27 
89352 F35JILL SONIKERMONTPELIER VA 9100:46:289800:05:487303:32:427600:03:209103:22:47 07:51:04 
90193 F38TRACY KAHNEYINDIAN HEAD MD 7400:41:269600:05:429803:56:215700:02:368403:05:37 07:51:40 
91235 F34CHRISTY MAGEEFALLS CHURCH VA 7800:42:146900:04:0210104:02:005200:02:268503:07:16 07:57:55 
9274 F48MAGGIE CRNICARLINGTON VA 7000:41:038600:04:5410004:00:038200:03:409003:14:55 08:04:32 
PlaceBibCoSAgeNAMECITY/STATE DQDQRankSWIMRankT1RankBIKERankT2RankRUNPENALTYTIMEDQ
93175 F40DIANE HUSKEYSAINT IGNACE MI 4000:36:203700:03:13802:53:081700:01:34  00:04:00  
94260 F48JUNE MCLAINWOODBRIDGE VA 300:27:17400:02:031302:57:00200:01:05     
95315 F25CRISTINA ROBLESARLINGTON VA 8300:43:348100:04:3610304:19:265500:02:35     
9673 F45LEAH COUGHLINCENTREVILLE VA 10200:57:275400:03:289903:57:186500:02:54     
97121AF39HOLLY GANNOEALEXANDRIA VA 10300:59:358400:04:4410204:12:308800:03:58     
98447UFF38ANN NEUHAUSRICHMOND VA 9800:49:4110200:06:409603:51:279700:06:08     
99448UFF39PATTY SHOAFDURHAM NC 9900:50:254700:03:21102:36:24       
100116UFF51LINDA FOURNIERRICHMOND VA 1600:31:56600:02:101202:56:41       
101249UFF51CONNIE MAXWELLNEWPORT NEWS VA 4400:36:296400:03:521802:59:56       
102251UFF42LEANNE MCALLISTERLEESBURG VA 4500:36:33900:02:221903:00:28       
103119UFF29NEVA FULKERSONSTONE RIDGE VA 100:19:434600:03:202103:02:04       
104443UFF43BETSY BUTLERFREDERICKSBURG VA 600:27:544100:03:163003:05:47       
105124 F40KERRIE GARLEPPANNANDALE VA 10000:51:107400:04:1410404:26:54       

** Results are for the private use of participants and are the Intellectual Property of Set Up Events. Unauthorized use of these results is prohibited.